createdAt,value
2023-02-01T00:00:58.141Z,98698.81
2023-02-01T00:03:28.067Z,98709.28
2023-02-01T00:05:58.876Z,98691.06
2023-02-01T00:08:25.736Z,98703.34
2023-02-01T00:11:03.662Z,98693.59
2023-02-01T00:13:32.632Z,98710.16
2023-02-01T00:16:07.273Z,98690.06
2023-02-01T00:18:35.803Z,98689.19
2023-02-01T00:21:02.768Z,98687.44
2023-02-01T00:23:29.497Z,98690.13
2023-02-01T00:25:56.037Z,98667.38
2023-02-01T00:28:22.580Z,98688.38
2023-02-01T00:30:57.576Z,98691.84
2023-02-01T00:33:24.613Z,98687.50
2023-02-01T00:36:00.530Z,98693.78
2023-02-01T00:38:28.791Z,98688.44
2023-02-01T00:40:59.006Z,98677.81
2023-02-01T00:43:30.261Z,98693.56
2023-02-01T00:45:56.715Z,98665.66
2023-02-01T00:48:23.288Z,98669.09
2023-02-01T00:50:49.810Z,98666.41
2023-02-01T00:53:16.453Z,98674.28
2023-02-01T00:55:46.817Z,98661.22
2023-02-01T00:58:13.330Z,98679.53
2023-02-01T01:00:40.160Z,98681.13
2023-02-01T01:03:20.382Z,98686.34
2023-02-01T01:05:57.989Z,98685.50
2023-02-01T01:08:27.270Z,98694.22
2023-02-01T01:10:54.217Z,98688.97
2023-02-01T01:13:20.691Z,98683.75
2023-02-01T01:15:47.683Z,98671.53
2023-02-01T01:18:16.483Z,98674.13
2023-02-01T01:20:43.303Z,98669.16
2023-02-01T01:23:09.854Z,98683.94
2023-02-01T01:25:40.358Z,98678.84
2023-02-01T01:28:11.062Z,98675.47
2023-02-01T01:30:41.092Z,98671.75
2023-02-01T01:33:07.805Z,98675.25
2023-02-01T01:35:34.477Z,98670.81
2023-02-01T01:38:03.774Z,98668.06
2023-02-01T01:40:31.386Z,98665.50
2023-02-01T01:43:00.730Z,98676.00
2023-02-01T01:45:38.251Z,98661.94
2023-02-01T01:48:28.124Z,98661.03
2023-02-01T01:51:00.445Z,98654.09
2023-02-01T01:53:46.001Z,98652.25
2023-02-01T01:56:17.425Z,98637.41
2023-02-01T01:58:44.264Z,98638.28
2023-02-01T02:01:11.222Z,98627.66
2023-02-01T02:03:43.956Z,98642.47
2023-02-01T02:06:18.352Z,98638.16
2023-02-01T02:08:44.917Z,98635.59
2023-02-01T02:11:16.735Z,98637.41
2023-02-01T02:13:46.080Z,98642.66
2023-02-01T02:16:30.898Z,98641.81
2023-02-01T02:19:24.937Z,98647.84
2023-02-01T02:22:34.643Z,98647.75
2023-02-01T02:25:22.852Z,98635.69
2023-02-01T02:28:21.482Z,98631.25
2023-02-01T02:30:57.131Z,98626.88
2023-02-01T02:33:41.858Z,98628.72
2023-02-01T02:36:39.816Z,98619.03
2023-02-01T02:39:09.802Z,98619.91
2023-02-01T02:42:28.811Z,98617.31
2023-02-01T02:45:28.453Z,98621.66
2023-02-01T02:48:09.105Z,98610.34
2023-02-01T02:50:58.099Z,98606.88
2023-02-01T02:53:53.650Z,98605.16
2023-02-01T02:56:41.010Z,98605.19
2023-02-01T02:59:28.238Z,98606.09
2023-02-01T03:02:14.124Z,98581.63
2023-02-01T03:04:41.509Z,98598.19
2023-02-01T03:07:35.991Z,98583.38
2023-02-01T03:10:11.538Z,98572.84
2023-02-01T03:12:58.104Z,98576.31
2023-02-01T03:15:38.740Z,98563.28
2023-02-01T03:18:13.702Z,98575.47
2023-02-01T03:20:44.278Z,98582.47
2023-02-01T03:23:14.871Z,98576.41
2023-02-01T03:25:42.838Z,98565.13
2023-02-01T03:28:11.164Z,98559.06
2023-02-01T03:30:43.023Z,98562.56
2023-02-01T03:33:21.969Z,98555.50
2023-02-01T03:36:10.947Z,98546.72
2023-02-01T03:38:45.054Z,98549.34
2023-02-01T03:41:29.833Z,98536.31
2023-02-01T03:44:07.495Z,98534.59
2023-02-01T03:46:42.774Z,98541.69
2023-02-01T03:49:14.279Z,98523.28
2023-02-01T03:51:41.721Z,98534.59
2023-02-01T03:54:13.016Z,98532.81
2023-02-01T03:56:45.108Z,98525.03
2023-02-01T03:59:12.993Z,98525.00
2023-02-01T04:01:39.443Z,98516.28
2023-02-01T04:04:06.658Z,98513.72
2023-02-01T04:06:33.409Z,98505.84
2023-02-01T04:08:59.922Z,98499.69
2023-02-01T04:11:28.362Z,98508.44
2023-02-01T04:13:54.805Z,98504.84
2023-02-01T04:16:21.329Z,98495.34
2023-02-01T04:18:47.844Z,98492.66
2023-02-01T04:21:14.421Z,98498.78
2023-02-01T04:23:40.879Z,98489.13
2023-02-01T04:26:07.753Z,98480.22
2023-02-01T04:28:34.314Z,98468.72
2023-02-01T04:31:00.893Z,98474.88
2023-02-01T04:33:30.957Z,98482.63
2023-02-01T04:35:57.434Z,98476.34
2023-02-01T04:38:23.885Z,98472.91
2023-02-01T04:40:51.424Z,98489.66
2023-02-01T04:43:19.630Z,98477.31
2023-02-01T04:45:50.076Z,98473.69
2023-02-01T04:48:18.319Z,98476.34
2023-02-01T04:50:49.231Z,98463.22
2023-02-01T04:53:16.413Z,98455.31
2023-02-01T04:55:43.760Z,98469.34
2023-02-01T04:58:11.474Z,98454.56
2023-02-01T05:00:38.312Z,98457.25
2023-02-01T05:03:04.867Z,98461.63
2023-02-01T05:05:31.563Z,98449.47
2023-02-01T05:07:58.818Z,98446.78
2023-02-01T05:10:25.551Z,98446.84
2023-02-01T05:13:10.654Z,98437.31
2023-02-01T05:15:37.129Z,98426.81
2023-02-01T05:18:03.809Z,98429.44
2023-02-01T05:20:30.364Z,98428.56
2023-02-01T05:22:57.062Z,98428.59
2023-02-01T05:25:23.782Z,98420.91
2023-02-01T05:27:50.289Z,98413.94
2023-02-01T05:30:17.079Z,98415.66
2023-02-01T05:32:43.675Z,98386.97
2023-02-01T05:35:10.260Z,98407.88
2023-02-01T05:37:36.737Z,98415.69
2023-02-01T05:40:03.853Z,98406.97
2023-02-01T05:42:30.303Z,98422.63
2023-02-01T05:44:56.797Z,98418.34
2023-02-01T05:47:23.297Z,98405.22
2023-02-01T05:49:49.958Z,98417.44
2023-02-01T05:52:20.206Z,98392.94
2023-02-01T05:54:50.131Z,98409.44
2023-02-01T05:57:17.434Z,98400.78
2023-02-01T05:59:45.750Z,98407.69
2023-02-01T06:02:13.265Z,98393.66
2023-02-01T06:04:40.260Z,98405.03
2023-02-01T06:07:08.702Z,98409.34
2023-02-01T06:09:35.939Z,98406.75
2023-02-01T06:12:03.083Z,98388.28
2023-02-01T06:14:29.742Z,98405.56
2023-02-01T06:16:56.577Z,98403.75
2023-02-01T06:19:23.641Z,98407.25
2023-02-01T06:21:50.207Z,98415.03
2023-02-01T06:24:16.704Z,98406.34
2023-02-01T06:26:43.399Z,98409.06
2023-02-01T06:29:13.777Z,98391.72
2023-02-01T06:31:40.896Z,98406.44
2023-02-01T06:34:07.489Z,98390.69
2023-02-01T06:36:33.983Z,98403.03
2023-02-01T06:39:00.840Z,98408.28
2023-02-01T06:41:29.612Z,98397.81
2023-02-01T06:43:56.530Z,98399.53
2023-02-01T06:46:23.088Z,98395.09
2023-02-01T06:48:51.331Z,98388.97
2023-02-01T06:51:23.523Z,98390.69
2023-02-01T06:53:50.105Z,98400.28
2023-02-01T06:56:16.581Z,98387.13
2023-02-01T06:58:43.159Z,98386.16
2023-02-01T07:01:10.997Z,98380.97
2023-02-01T07:03:38.125Z,98385.28
2023-02-01T07:06:05.530Z,98389.72
2023-02-01T07:08:34.174Z,98390.47
2023-02-01T07:11:05.419Z,98373.88
2023-02-01T07:13:32.095Z,98390.44
2023-02-01T07:16:00.779Z,98382.59
2023-02-01T07:18:29.876Z,98383.34
2023-02-01T07:20:57.214Z,98400.75
2023-02-01T07:23:24.576Z,98415.53
2023-02-01T07:25:55.241Z,98408.59
2023-02-01T07:28:22.141Z,98410.38
2023-02-01T07:30:51.957Z,98406.81
2023-02-01T07:33:26.000Z,98414.69
2023-02-01T07:35:54.335Z,98405.91
2023-02-01T07:38:22.666Z,98408.59
2023-02-01T07:40:49.161Z,98425.22
2023-02-01T07:43:15.667Z,98427.88
2023-02-01T07:45:44.815Z,98435.84
2023-02-01T07:48:11.260Z,98443.63
2023-02-01T07:50:37.778Z,98455.91
2023-02-01T07:53:04.298Z,98464.56
2023-02-01T07:55:30.922Z,98468.72
2023-02-01T07:57:59.013Z,98471.31
2023-02-01T08:00:44.660Z,98484.34
2023-02-01T08:03:11.252Z,98467.72
2023-02-01T08:05:37.940Z,98471.97
2023-02-01T08:08:04.965Z,98470.16
2023-02-01T08:10:31.453Z,98477.13
2023-02-01T08:13:02.083Z,98483.31
2023-02-01T08:15:30.175Z,98469.53
2023-02-01T08:17:56.712Z,98479.19
2023-02-01T08:20:24.573Z,98474.13
2023-02-01T08:22:54.307Z,98483.78
2023-02-01T08:25:21.695Z,98467.44
2023-02-01T08:27:48.461Z,98481.34
2023-02-01T08:30:15.168Z,98489.28
2023-02-01T08:32:41.684Z,98479.09
2023-02-01T08:35:09.401Z,98474.94
2023-02-01T08:37:39.644Z,98472.31
2023-02-01T08:40:10.177Z,98472.28
2023-02-01T08:42:51.587Z,98450.56
2023-02-01T08:45:20.818Z,98463.75
2023-02-01T08:47:48.005Z,98456.03
2023-02-01T08:50:15.295Z,98460.44
2023-02-01T08:52:41.959Z,98465.69
2023-02-01T08:55:09.067Z,98469.28
2023-02-01T08:57:35.806Z,98465.72
2023-02-01T09:00:04.239Z,98475.31
2023-02-01T09:02:30.856Z,98477.13
2023-02-01T09:04:57.795Z,98485.78
2023-02-01T09:07:25.861Z,98481.53
2023-02-01T09:09:52.309Z,98484.03
2023-02-01T09:12:18.868Z,98481.50
2023-02-01T09:14:45.544Z,98478.06
2023-02-01T09:17:14.381Z,98491.22
2023-02-01T09:19:42.187Z,98504.47
2023-02-01T09:22:09.518Z,98494.91
2023-02-01T09:24:35.960Z,98493.97
2023-02-01T09:27:02.507Z,98489.50
2023-02-01T09:29:29.158Z,98473.78
2023-02-01T09:32:03.298Z,98489.63
2023-02-01T09:34:30.785Z,98490.56
2023-02-01T09:36:57.259Z,98497.56
2023-02-01T09:39:23.771Z,98481.25
2023-02-01T09:41:53.752Z,98459.53
2023-02-01T09:44:43.895Z,98484.94
2023-02-01T09:47:20.033Z,98493.69
2023-02-01T09:49:53.797Z,98492.78
2023-02-01T09:52:29.267Z,98489.19
2023-02-01T09:55:04.911Z,98480.44
2023-02-01T09:58:03.557Z,98489.16
2023-02-01T10:00:35.592Z,98487.38
2023-02-01T10:03:02.116Z,98497.84
2023-02-01T10:06:07.103Z,98490.00
2023-02-01T10:09:11.034Z,98485.78
2023-02-01T10:12:16.328Z,98495.41
2023-02-01T10:14:55.450Z,98497.22
2023-02-01T10:17:24.903Z,98492.81
2023-02-01T10:20:24.009Z,98469.31
2023-02-01T10:23:27.348Z,98493.91
2023-02-01T10:25:57.261Z,98467.75
2023-02-01T10:28:26.890Z,98483.41
2023-02-01T10:30:59.760Z,98485.16
2023-02-01T10:33:45.463Z,98483.47
2023-02-01T10:36:31.406Z,98476.50
2023-02-01T10:39:04.671Z,98471.44
2023-02-01T10:41:34.600Z,98482.81
2023-02-01T10:44:04.404Z,98490.72
2023-02-01T10:46:32.782Z,98492.47
2023-02-01T10:49:03.319Z,98474.13
2023-02-01T10:51:40.298Z,98487.22
2023-02-01T10:54:21.355Z,98490.69
2023-02-01T10:56:49.464Z,98481.00
2023-02-01T10:59:26.244Z,98478.31
2023-02-01T11:02:01.489Z,98482.84
2023-02-01T11:04:32.524Z,98477.72
2023-02-01T11:07:25.210Z,98476.88
2023-02-01T11:09:56.046Z,98462.09
2023-02-01T11:12:33.087Z,98465.66
2023-02-01T11:15:22.597Z,98469.97
2023-02-01T11:17:52.766Z,98465.50
2023-02-01T11:20:25.061Z,98445.34
2023-02-01T11:22:57.683Z,98471.47
2023-02-01T11:25:25.519Z,98472.34
2023-02-01T11:27:55.756Z,98459.19
2023-02-01T11:30:35.861Z,98467.94
2023-02-01T11:33:06.805Z,98454.00
2023-02-01T11:35:35.718Z,98450.53
2023-02-01T11:38:12.582Z,98427.75
2023-02-01T11:40:39.553Z,98461.09
2023-02-01T11:43:23.632Z,98446.13
2023-02-01T11:46:01.873Z,98440.84
2023-02-01T11:48:31.748Z,98427.72
2023-02-01T11:51:06.934Z,98425.97
2023-02-01T11:53:48.383Z,98434.69
2023-02-01T11:56:26.229Z,98432.00
2023-02-01T11:59:09.958Z,98427.59
2023-02-01T12:02:07.649Z,98414.50
2023-02-01T12:04:49.218Z,98425.84
2023-02-01T12:07:20.584Z,98409.25
2023-02-01T12:10:05.309Z,98393.50
2023-02-01T12:12:43.858Z,98392.59
2023-02-01T12:15:40.367Z,98373.28
2023-02-01T12:18:28.012Z,98366.28
2023-02-01T12:21:16.359Z,98352.28
2023-02-01T12:23:54.277Z,98362.72
2023-02-01T12:26:58.380Z,98339.13
2023-02-01T12:29:59.279Z,98338.25
2023-02-01T12:32:28.678Z,98327.75
2023-02-01T12:35:13.798Z,98313.78
2023-02-01T12:37:58.900Z,98291.09
2023-02-01T12:40:36.959Z,98291.16
2023-02-01T12:43:22.637Z,98270.22
2023-02-01T12:45:59.519Z,98292.06
2023-02-01T12:48:35.052Z,98281.63
2023-02-01T12:51:08.147Z,98270.31
2023-02-01T12:53:54.987Z,98280.84
2023-02-01T12:56:33.401Z,98275.59
2023-02-01T12:59:05.271Z,98265.94
2023-02-01T13:01:40.073Z,98268.47
2023-02-01T13:04:21.176Z,98257.94
2023-02-01T13:06:58.086Z,98265.69
2023-02-01T13:09:31.928Z,98255.09
2023-02-01T13:12:13.637Z,98254.22
2023-02-01T13:14:47.445Z,98251.56
2023-02-01T13:17:26.041Z,98227.13
2023-02-01T13:20:30.649Z,98239.38
2023-02-01T13:23:15.948Z,98217.44
2023-02-01T13:25:54.154Z,98218.38
2023-02-01T13:28:48.853Z,98219.25
2023-02-01T13:31:27.473Z,98210.50
2023-02-01T13:34:17.031Z,98207.75
2023-02-01T13:37:08.441Z,98212.91
2023-02-01T13:39:41.040Z,98200.63
2023-02-01T13:42:30.353Z,98213.63
2023-02-01T13:45:05.298Z,98216.13
2023-02-01T13:47:54.278Z,98209.97
2023-02-01T13:50:29.425Z,98216.09
2023-02-01T13:53:12.725Z,98209.09
2023-02-01T13:56:07.209Z,98200.38
2023-02-01T13:58:38.197Z,98196.03
2023-02-01T14:01:31.092Z,98199.50
2023-02-01T14:04:02.756Z,98191.63
2023-02-01T14:06:29.236Z,98194.25
2023-02-01T14:09:14.110Z,98187.22
2023-02-01T14:11:47.009Z,98191.63
2023-02-01T14:14:16.173Z,98199.47
2023-02-01T14:16:54.861Z,98204.63
2023-02-01T14:19:22.991Z,98215.09
2023-02-01T14:21:59.872Z,98219.31
2023-02-01T14:24:35.739Z,98220.16
2023-02-01T14:27:15.212Z,98229.59
2023-02-01T14:29:51.775Z,98225.22
2023-02-01T14:32:21.126Z,98274.00
2023-02-01T14:34:47.724Z,98342.13
2023-02-01T14:37:25.794Z,98394.53
2023-02-01T14:39:57.693Z,98414.00
2023-02-01T14:42:33.383Z,98414.47
2023-02-01T14:45:19.748Z,98406.69
2023-02-01T14:47:55.509Z,98411.50
2023-02-01T14:50:28.159Z,98419.75
2023-02-01T14:53:08.173Z,98427.41
2023-02-01T14:55:34.564Z,98428.97
2023-02-01T14:58:05.976Z,98452.38
2023-02-01T15:00:34.096Z,98448.94
2023-02-01T15:03:34.702Z,98438.50
2023-02-01T15:06:06.875Z,98424.44
2023-02-01T15:08:37.704Z,98419.97
2023-02-01T15:11:10.260Z,98422.78
2023-02-01T15:13:36.812Z,98427.91
2023-02-01T15:16:10.539Z,98400.09
2023-02-01T15:18:37.407Z,98375.63
2023-02-01T15:21:27.085Z,98390.59
2023-02-01T15:24:12.143Z,98403.88
2023-02-01T15:26:38.808Z,98391.78
2023-02-01T15:29:05.351Z,98411.94
2023-02-01T15:31:39.420Z,98413.09
2023-02-01T15:34:06.100Z,98413.31
2023-02-01T15:36:33.290Z,98402.72
2023-02-01T15:39:21.182Z,98412.22
2023-02-01T15:42:16.541Z,98403.50
2023-02-01T15:44:49.202Z,98406.16
2023-02-01T15:47:25.406Z,98415.00
2023-02-01T15:49:55.401Z,98417.00
2023-02-01T15:52:26.231Z,98401.25
2023-02-01T15:54:56.935Z,98401.41
2023-02-01T15:57:36.252Z,98412.63
2023-02-01T16:00:08.526Z,98416.19
2023-02-01T16:02:44.733Z,98411.09
2023-02-01T16:05:33.654Z,98400.75
2023-02-01T16:08:17.528Z,98407.56
2023-02-01T16:10:46.776Z,98405.09
2023-02-01T16:13:15.038Z,98399.94
2023-02-01T16:15:41.601Z,98401.69
2023-02-01T16:18:09.145Z,98403.63
2023-02-01T16:20:40.648Z,98413.13
2023-02-01T16:23:08.897Z,98421.16
2023-02-01T16:25:36.542Z,98423.09
2023-02-01T16:28:06.501Z,98423.16
2023-02-01T16:30:33.841Z,98425.69
2023-02-01T16:33:06.208Z,98397.88
2023-02-01T16:35:38.003Z,98412.81
2023-02-01T16:38:13.182Z,98410.34
2023-02-01T16:40:44.263Z,98409.44
2023-02-01T16:43:28.712Z,98403.31
2023-02-01T16:45:59.926Z,98406.81
2023-02-01T16:48:32.440Z,98391.25
2023-02-01T16:51:02.061Z,98406.28
2023-02-01T16:53:34.501Z,98406.25
2023-02-01T16:56:20.572Z,98400.94
2023-02-01T16:58:47.734Z,98399.28
2023-02-01T17:01:17.715Z,98412.31
2023-02-01T17:03:46.570Z,98398.38
2023-02-01T17:06:16.448Z,98421.97
2023-02-01T17:08:46.221Z,98425.44
2023-02-01T17:11:16.730Z,98430.66
2023-02-01T17:13:45.819Z,98422.81
2023-02-01T17:16:18.068Z,98434.91
2023-02-01T17:18:47.617Z,98425.28
2023-02-01T17:21:14.239Z,98421.69
2023-02-01T17:23:41.078Z,98407.69
2023-02-01T17:26:11.006Z,98411.16
2023-02-01T17:28:37.489Z,98422.44
2023-02-01T17:31:04.799Z,98425.94
2023-02-01T17:33:36.636Z,98431.19
2023-02-01T17:36:05.986Z,98445.97
2023-02-01T17:38:35.214Z,98454.69
2023-02-01T17:41:01.754Z,98470.44
2023-02-01T17:43:28.427Z,98424.44
2023-02-01T17:46:02.782Z,98427.13
2023-02-01T17:48:29.474Z,98422.63
2023-02-01T17:50:58.846Z,98434.13
2023-02-01T17:53:26.844Z,98432.28
2023-02-01T17:55:54.020Z,98421.72
2023-02-01T17:58:21.695Z,98427.84
2023-02-01T18:00:49.399Z,98434.66
2023-02-01T18:03:27.985Z,98432.97
2023-02-01T18:05:56.852Z,98429.00
2023-02-01T18:08:30.269Z,98436.84
2023-02-01T18:11:01.667Z,98438.59
2023-02-01T18:13:29.772Z,98439.53
2023-02-01T18:15:56.341Z,98449.16
2023-02-01T18:18:22.884Z,98439.56
2023-02-01T18:20:50.001Z,98444.84
2023-02-01T18:23:23.259Z,98436.41
2023-02-01T18:25:52.367Z,98417.22
2023-02-01T18:28:22.699Z,98438.06
2023-02-01T18:30:51.523Z,98439.78
2023-02-01T18:33:20.766Z,98437.44
2023-02-01T18:35:50.337Z,98441.00
2023-02-01T18:38:16.943Z,98434.06
2023-02-01T18:40:51.203Z,98443.75
2023-02-01T18:43:18.044Z,98446.22
2023-02-01T18:45:45.576Z,98434.06
2023-02-01T18:48:14.300Z,98440.38
2023-02-01T18:50:43.476Z,98439.53
2023-02-01T18:53:15.955Z,98424.81
2023-02-01T18:55:42.508Z,98441.31
2023-02-01T18:58:13.478Z,98444.16
2023-02-01T19:00:39.981Z,98439.06
2023-02-01T19:03:06.489Z,98438.91
2023-02-01T19:05:33.119Z,98446.00
2023-02-01T19:08:03.226Z,98458.41
2023-02-01T19:10:29.999Z,98455.69
2023-02-01T19:12:57.500Z,98454.69
2023-02-01T19:15:25.683Z,98459.06
2023-02-01T19:17:57.105Z,98462.47
2023-02-01T19:20:26.022Z,98461.75
2023-02-01T19:22:54.227Z,98460.19
2023-02-01T19:25:24.504Z,98454.06
2023-02-01T19:27:52.051Z,98451.56
2023-02-01T19:30:20.042Z,98442.94
2023-02-01T19:32:46.703Z,98450.69
2023-02-01T19:35:19.252Z,98445.47
2023-02-01T19:37:47.304Z,98447.19
2023-02-01T19:40:16.852Z,98442.94
2023-02-01T19:42:43.528Z,98439.59
2023-02-01T19:45:10.533Z,98435.22
2023-02-01T19:47:37.703Z,98434.28
2023-02-01T19:50:07.040Z,98429.00
2023-02-01T19:52:34.891Z,98448.31
2023-02-01T19:55:01.654Z,98452.75
2023-02-01T19:57:30.874Z,98456.13
2023-02-01T19:59:57.535Z,98480.03
2023-02-01T20:02:24.709Z,98479.16
2023-02-01T20:04:51.178Z,98485.16
2023-02-01T20:07:17.733Z,98483.22
2023-02-01T20:09:44.174Z,98495.50
2023-02-01T20:12:11.522Z,98502.50
2023-02-01T20:14:39.045Z,98496.31
2023-02-01T20:17:06.669Z,98504.13
2023-02-01T20:19:33.943Z,98485.94
2023-02-01T20:22:00.968Z,98499.00
2023-02-01T20:24:27.492Z,98496.38
2023-02-01T20:26:54.818Z,98493.97
2023-02-01T20:29:22.906Z,98498.13
2023-02-01T20:31:49.576Z,98505.88
2023-02-01T20:34:16.134Z,98509.22
2023-02-01T20:36:42.689Z,98512.66
2023-02-01T20:39:10.809Z,98511.09
2023-02-01T20:41:37.923Z,98525.22
2023-02-01T20:44:04.572Z,98504.38
2023-02-01T20:46:31.040Z,98515.69
2023-02-01T20:48:57.628Z,98508.72
2023-02-01T20:51:24.114Z,98511.97
2023-02-01T20:53:56.224Z,98502.19
2023-02-01T20:56:22.809Z,98508.47
2023-02-01T20:58:49.422Z,98516.59
2023-02-01T21:01:16.253Z,98503.66
2023-02-01T21:03:43.190Z,98511.31
2023-02-01T21:06:12.112Z,98513.84
2023-02-01T21:08:39.025Z,98520.69
2023-02-01T21:11:08.314Z,98521.59
2023-02-01T21:13:38.256Z,98517.13
2023-02-01T21:16:08.628Z,98516.25
2023-02-01T21:18:35.460Z,98511.13
2023-02-01T21:21:07.033Z,98511.09
2023-02-01T21:23:33.659Z,98511.91
2023-02-01T21:26:03.207Z,98514.69
2023-02-01T21:28:29.707Z,98521.72
2023-02-01T21:30:56.280Z,98532.25
2023-02-01T21:33:22.762Z,98526.84
2023-02-01T21:35:54.956Z,98539.94
2023-02-01T21:38:25.060Z,98543.50
2023-02-01T21:41:14.378Z,98541.66
2023-02-01T21:43:40.821Z,98548.66
2023-02-01T21:46:08.409Z,98552.13
2023-02-01T21:49:03.810Z,98542.63
2023-02-01T21:51:24.840Z,98551.25
2023-02-01T21:53:51.372Z,98551.38
2023-02-01T21:56:18.082Z,98557.56
2023-02-01T21:58:44.669Z,98567.94
2023-02-01T22:01:11.235Z,98568.19
2023-02-01T22:03:40.529Z,98556.81
2023-02-01T22:06:09.334Z,98578.00
2023-02-01T22:08:41.368Z,98582.25
2023-02-01T22:11:07.881Z,98575.19
2023-02-01T22:13:34.379Z,98579.63
2023-02-01T22:16:01.017Z,98574.28
2023-02-01T22:18:28.051Z,98589.03
2023-02-01T22:21:06.399Z,98596.16
2023-02-01T22:23:32.872Z,98593.84
2023-02-01T22:26:04.750Z,98587.63
2023-02-01T22:28:33.746Z,98592.91
2023-02-01T22:31:02.409Z,98587.44
2023-02-01T22:33:29.216Z,98595.28
2023-02-01T22:35:56.027Z,98598.81
2023-02-01T22:38:23.235Z,98601.50
2023-02-01T22:41:02.027Z,98598.94
2023-02-01T22:43:31.954Z,98610.34
2023-02-01T22:46:02.893Z,98605.06
2023-02-01T22:48:30.738Z,98607.69
2023-02-01T22:51:01.331Z,98623.38
2023-02-01T22:53:29.546Z,98622.53
2023-02-01T22:56:03.817Z,98628.50
2023-02-01T22:58:30.725Z,98625.88
2023-02-01T23:01:07.783Z,98640.66
2023-02-01T23:03:35.972Z,98635.34
2023-02-01T23:06:09.975Z,98633.72
2023-02-01T23:08:39.341Z,98632.22
2023-02-01T23:11:11.053Z,98637.41
2023-02-01T23:13:39.239Z,98636.50
2023-02-01T23:16:12.737Z,98629.38
2023-02-01T23:18:40.445Z,98644.19
2023-02-01T23:21:15.916Z,98639.97
2023-02-01T23:23:47.475Z,98656.34
2023-02-01T23:26:18.193Z,98639.06
2023-02-01T23:28:44.815Z,98643.53
2023-02-01T23:31:13.991Z,98650.38
2023-02-01T23:33:42.015Z,98652.91
2023-02-01T23:36:12.325Z,98642.53
2023-02-01T23:38:38.796Z,98649.47
2023-02-01T23:41:07.780Z,98645.09
2023-02-01T23:43:53.020Z,98648.69
2023-02-01T23:46:19.786Z,98655.53
2023-02-01T23:48:47.960Z,98656.22
2023-02-01T23:51:15.597Z,98657.88
2023-02-01T23:53:43.871Z,98649.16
2023-02-01T23:56:20.701Z,98659.75
2023-02-01T23:58:51.930Z,98657.06
